Time;durP1;ratioP1;P1;durP2;ratioP2;P2;SDS_P1;SDS_P2;PMS_P1;PMS_P2;Temp;Humidity;BMP_temperature;BMP_pressure;BME280_temperature;BME280_humidity;BME280_pressure;Samples;Min_cycle;Max_cycle;Signal;HPM_P1;HPM_P2
2023/01/04 00:04:49;;;;;;;3.03;1.50;;;8.10;99.90;;;5.94;81.29;101384.25;10518497;28;20494;-87
2023/01/04 00:09:54;;;;;;;3.57;1.70;;;8.10;99.90;;;6.12;79.76;101376.81;10517868;28;20068;-87
2023/01/04 00:14:56;;;;;;;2.97;1.60;;;8.30;99.90;;;6.26;78.33;101389.00;10539988;28;20063;-87
2023/01/04 00:20:00;;;;;;;3.37;1.87;;;8.40;99.90;;;6.27;77.57;101383.59;10521144;28;20594;-87
2023/01/04 00:25:03;;;;;;;4.10;1.90;;;8.40;99.90;;;6.27;76.95;101393.31;10549501;28;20095;-87
2023/01/04 00:30:07;;;;;;;3.13;1.57;;;8.40;99.90;;;6.21;76.77;101381.41;10546639;28;20063;-87
2023/01/04 00:35:10;;;;;;;3.83;1.40;;;8.40;99.90;;;6.22;75.92;101387.53;10526653;28;20056;-87
2023/01/04 00:40:33;;;;;;;2.47;1.30;;;8.30;99.90;;;6.31;74.70;101389.50;10527107;28;20189;-87
2023/01/04 00:45:36;;;;;;;2.40;1.20;;;8.40;99.90;;;6.25;74.46;101397.88;10546768;28;20122;-87
2023/01/04 00:50:39;;;;;;;4.67;1.60;;;8.40;99.90;;;6.01;74.72;101398.69;10551507;28;20075;-87
2023/01/04 00:55:42;;;;;;;4.13;1.80;;;8.30;99.90;;;5.68;75.60;101398.38;10526622;28;20061;-86
2023/01/04 01:00:45;;;;;;;3.03;1.87;;;8.10;99.90;;;5.40;76.43;101408.22;10517771;28;20060;-87
2023/01/04 01:05:49;;;;;;;2.93;1.73;;;7.80;99.90;;;5.04;77.99;101415.03;10527047;28;20063;-87
2023/01/04 01:10:54;;;;;;;3.77;1.97;;;7.50;99.90;;;4.74;79.08;101414.41;10548475;28;20071;-87
2023/01/04 01:16:09;;;;;;;3.93;1.60;;;7.20;99.90;;;4.57;80.63;101426.88;10530410;28;20137;-87
2023/01/04 01:21:19;;;;;;;3.43;1.47;;;6.90;99.90;;;4.62;80.91;101417.81;10540856;28;20078;-87
2023/01/04 01:26:24;;;;;;;4.03;1.63;;;6.90;99.90;;;4.59;81.33;101418.03;10525924;28;20106;-87
2023/01/04 01:31:28;;;;;;;2.93;1.63;;;6.90;99.90;;;4.59;81.52;101436.47;10525685;28;20155;-86
2023/01/04 01:36:31;;;;;;;4.33;1.87;;;6.90;99.90;;;4.74;81.33;101414.41;10525608;28;20071;-87
2023/01/04 01:41:35;;;;;;;3.00;1.20;;;7.00;99.90;;;4.93;80.81;101408.78;10526926;28;20057;-86
2023/01/04 01:46:45;;;;;;;3.20;1.40;;;7.10;99.90;;;5.12;79.10;101406.59;10527795;28;20060;-86
2023/01/04 01:51:49;;;;;;;2.35;1.05;;;7.40;99.90;;;5.10;78.76;101403.22;10540503;28;20063;-87
2023/01/04 01:56:56;;;;;;;3.83;1.90;;;7.40;99.90;;;4.93;78.95;101409.63;10532508;28;20062;-86
2023/01/04 02:01:59;;;;;;;4.93;1.70;;;7.30;99.90;;;4.71;79.77;101404.91;10542094;28;20056;-86
2023/01/04 02:07:03;;;;;;;3.83;1.87;;;7.10;99.90;;;4.65;79.83;101415.84;10542148;28;20087;-86
2023/01/04 02:12:11;;;;;;;4.53;1.77;;;7.00;99.90;;;4.61;79.95;101414.34;10574476;28;20056;-86
2023/01/04 02:17:38;;;;;;;4.40;1.77;;;6.90;99.90;;;4.47;80.11;101417.03;10531207;28;20052;-86
2023/01/04 02:23:37;;;;;;;4.17;2.00;;;6.80;99.90;;;4.23;81.06;101415.03;10533146;28;20469;-86
2023/01/04 02:29:20;;;;;;;4.60;2.10;;;6.60;99.90;;;3.94;81.92;101416.00;10558853;28;20144;-85
2023/01/04 02:34:38;;;;;;;;;;;6.30;99.90;;;3.69;82.86;101417.53;10538639;28;20059;-85
2023/01/04 02:40:16;;;;;;;12.50;5.30;;;6.10;99.90;;;3.45;84.00;101417.25;10543732;28;19929;-85
2023/01/04 02:45:34;;;;;;;7.50;3.60;;;5.90;99.90;;;3.30;85.47;101417.31;10501931;28;20087;-86
2023/01/04 02:50:57;;;;;;;9.13;3.67;;;5.70;99.90;;;3.24;86.09;101413.28;10519046;28;20536;-86
2023/01/04 02:56:35;;;;;;;10.70;4.77;;;5.60;99.90;;;3.06;86.37;101411.72;10520708;28;20111;-86
2023/01/04 03:07:53;;;;;;;8.67;4.10;;;5.30;99.90;;;2.77;88.54;101408.19;10556823;28;20069;-86
2023/01/04 03:13:16;;;;;;;10.00;4.27;;;5.20;99.90;;;2.78;89.55;101415.97;10535726;28;20136;-87
2023/01/04 03:18:27;;;;;;;7.73;3.70;;;5.10;99.90;;;2.65;90.23;101418.44;10516802;28;20091;-87
2023/01/04 03:52:01;;;;;;;11.40;4.97;;;4.50;99.90;;;2.03;93.99;101419.28;10547826;28;20056;-85
2023/01/04 03:57:06;;;;;;;12.33;6.17;;;4.40;99.90;;;1.98;95.38;101418.69;10527078;28;20064;-85
2023/01/04 04:02:13;;;;;;;11.50;5.90;;;4.30;99.90;;;2.01;96.43;101406.28;10521790;28;20052;-86
2023/01/04 04:12:37;;;;;;;11.13;4.37;;;4.40;99.90;;;2.07;96.94;101411.19;10565773;28;20747;-86
2023/01/04 04:17:40;;;;;;;10.17;4.40;;;4.40;99.90;;;2.08;97.18;101407.63;10555276;28;20056;-86
2023/01/04 04:22:43;;;;;;;8.77;5.03;;;4.40;99.90;;;2.28;97.35;101414.41;10511634;28;20569;-86
2023/01/04 04:27:46;;;;;;;8.63;4.50;;;4.50;99.90;;;2.40;96.89;101418.97;10552287;28;20067;-86
2023/01/04 04:32:49;;;;;;;7.13;3.70;;;4.60;99.90;;;2.56;96.73;101404.97;10521431;28;20064;-86
2023/01/04 04:37:52;;;;;;;6.83;3.60;;;4.70;99.90;;;2.73;95.99;101423.25;10528161;28;20052;-86
2023/01/04 04:42:55;;;;;;;6.57;3.63;;;4.90;99.90;;;2.89;95.16;101412.72;10526533;28;20082;-86
2023/01/04 04:47:58;;;;;;;9.70;4.77;;;5.10;99.90;;;3.03;93.93;101411.91;10523795;28;20056;-86
2023/01/04 04:53:01;;;;;;;8.57;3.97;;;5.20;99.90;;;3.07;93.40;101410.81;10517127;28;20465;-86
2023/01/04 04:58:04;;;;;;;9.30;4.10;;;5.30;99.90;;;3.12;92.77;101411.34;10536646;28;20060;-85
2023/01/04 05:03:07;;;;;;;6.93;3.67;;;5.40;99.90;;;3.10;92.22;101406.19;10506311;28;20063;-85
2023/01/04 05:08:11;;;;;;;10.30;4.50;;;5.40;99.90;;;2.92;91.66;101418.63;10548837;28;20060;-86
2023/01/04 05:13:14;;;;;;;7.60;4.00;;;5.20;99.90;;;2.59;91.38;101418.78;10526868;28;20451;-86
2023/01/04 05:18:19;;;;;;;8.33;4.07;;;5.00;99.90;;;2.37;91.83;101424.38;10539993;28;20060;-86
2023/01/04 05:23:23;;;;;;;7.00;3.67;;;4.80;99.90;;;2.28;92.69;101421.41;10506096;28;20529;-86
2023/01/04 05:28:26;;;;;;;7.60;3.77;;;4.70;99.90;;;2.25;93.24;101427.69;10520867;28;20143;-86
2023/01/04 05:33:31;;;;;;;5.87;3.07;;;4.60;99.90;;;2.19;93.84;101416.69;10516038;28;20147;-86
2023/01/04 05:38:34;;;;;;;4.77;2.50;;;4.50;99.90;;;2.38;94.87;101423.44;10523874;28;20838;-86
2023/01/04 05:43:37;;;;;;;5.67;3.00;;;4.60;99.90;;;2.57;94.75;101425.88;10507018;28;20052;-87
2023/01/04 05:48:40;;;;;;;19.17;7.00;;;4.80;99.90;;;2.67;94.11;101421.81;10509870;28;20061;-87
2023/01/04 05:53:43;;;;;;;10.60;4.80;;;4.90;99.90;;;2.62;93.44;101426.47;10512437;28;20147;-87
2023/01/04 05:58:46;;;;;;;13.33;5.27;;;5.00;99.90;;;2.47;93.39;101434.38;10521623;28;20071;-85
2023/01/04 06:03:49;;;;;;;12.50;6.47;;;4.80;99.90;;;2.26;93.52;101434.63;10531728;28;20056;-86
2023/01/04 06:08:52;;;;;;;14.67;7.67;;;4.70;99.90;;;2.04;93.45;101440.22;10499586;28;20088;-86
2023/01/04 06:13:57;;;;;;;14.43;7.10;;;4.50;99.90;;;1.82;93.81;101447.53;10542206;28;20064;-86
2023/01/04 06:19:00;;;;;;;12.17;6.47;;;4.20;99.90;;;1.55;93.47;101453.25;10529296;28;20142;-86
2023/01/04 06:24:04;;;;;;;19.10;8.97;;;4.00;99.90;;;1.29;93.90;101452.00;10508163;28;20417;-86
2023/01/04 06:29:07;;;;;;;16.27;8.30;;;3.80;99.90;;;1.12;94.46;101459.84;10523577;28;20530;-86
2023/01/04 06:34:12;;;;;;;16.20;7.80;;;3.70;99.90;;;0.93;95.05;101464.31;10525018;28;20067;-86
2023/01/04 06:39:15;;;;;;;14.03;7.93;;;3.50;99.90;;;0.78;95.19;101469.38;10504926;28;20057;-85
2023/01/04 06:44:18;;;;;;;25.30;8.97;;;3.30;99.90;;;0.66;95.91;101462.13;10509645;28;20064;-85
2023/01/04 06:49:21;;;;;;;16.73;7.13;;;3.20;99.90;;;0.58;96.17;101473.84;10538880;28;20060;-85
2023/01/04 06:54:24;;;;;;;13.57;6.60;;;3.10;99.90;;;0.78;97.90;101476.34;10544550;28;20186;-85
2023/01/04 06:59:27;;;;;;;14.43;7.50;;;3.00;99.90;;;1.19;98.52;101471.69;10521512;28;20517;-85
2023/01/04 07:04:30;;;;;;;18.47;10.00;;;3.20;99.90;;;1.64;99.78;101472.91;10542463;28;20122;-85
2023/01/04 07:09:34;;;;;;;17.90;8.47;;;3.50;99.90;;;2.04;100.00;101483.91;10531349;28;20151;-85
2023/01/04 07:14:37;;;;;;;15.60;7.90;;;3.80;99.90;;;2.26;99.71;101481.84;10536227;28;20065;-86
2023/01/04 07:19:40;;;;;;;14.20;7.23;;;4.10;99.90;;;2.33;99.62;101474.47;10541154;28;20060;-85
2023/01/04 07:24:43;;;;;;;13.23;7.00;;;4.20;99.90;;;2.48;99.95;101471.03;10533313;28;20064;-86
2023/01/04 07:29:46;;;;;;;13.07;5.87;;;4.40;99.90;;;2.56;99.63;101468.81;10525268;28;20057;-85
2023/01/04 07:34:49;;;;;;;14.33;6.87;;;4.50;99.90;;;2.59;99.05;101468.66;10562800;28;20052;-85
2023/01/04 07:39:53;;;;;;;19.10;8.93;;;4.60;99.90;;;2.97;99.53;101472.66;10550260;28;20523;-85
2023/01/04 07:44:55;;;;;;;12.07;5.53;;;4.70;99.90;;;3.49;99.29;101466.06;10514344;28;20151;-86
2023/01/04 07:49:59;;;;;;;12.00;6.40;;;5.10;99.90;;;4.15;98.64;101475.19;10535038;28;20063;-86
2023/01/04 07:55:02;;;;;;;9.37;5.23;;;5.50;99.90;;;4.58;96.17;101475.13;10536307;28;20090;-86
2023/01/04 08:00:06;;;;;;;19.10;8.30;;;5.80;99.90;;;4.98;94.38;101473.38;10532328;28;20159;-87
2023/01/04 08:05:08;;;;;;;11.03;5.57;;;6.10;99.90;;;5.58;93.88;101483.41;10528311;28;20068;-87
2023/01/04 08:10:12;;;;;;;16.83;8.43;;;6.50;99.90;;;6.21;92.73;101459.75;10507628;28;20063;-88
2023/01/04 08:15:15;;;;;;;13.43;7.40;;;7.00;99.90;;;6.56;89.40;101463.34;10553521;28;20088;-87
2023/01/04 08:20:18;;;;;;;30.07;11.10;;;7.50;99.90;;;6.92;86.05;101459.81;10536275;28;20148;-87
2023/01/04 08:25:21;;;;;;;81.40;23.13;;;8.00;99.90;;;7.56;85.55;101464.72;10536044;28;20076;-87
2023/01/04 08:30:24;;;;;;;27.27;11.67;;;8.60;99.90;;;8.16;83.20;101458.25;10547476;28;20056;-87
2023/01/04 08:35:28;;;;;;;23.10;15.60;;;9.10;99.90;;;8.65;80.38;101456.16;10507935;28;20473;-86
2023/01/04 08:40:31;;;;;;;15.27;8.03;;;9.60;99.90;;;8.99;77.99;101462.16;10519262;28;20062;-87
2023/01/04 08:45:54;;;;;;;14.90;8.47;;;10.10;99.90;;;9.20;75.04;101463.03;10531361;28;20060;-90
2023/01/04 08:51:03;;;;;;;9.53;5.87;;;10.50;99.90;;;9.43;73.54;101470.88;10527927;28;20060;-89
2023/01/04 08:56:07;;;;;;;12.52;6.75;;;10.80;99.90;;;9.57;72.09;101473.19;10532236;28;20148;-88
2023/01/04 09:01:10;;;;;;;14.30;8.00;;;11.00;99.90;;;9.10;70.75;101470.91;10531134;28;20433;-89
2023/01/04 09:06:15;;;;;;;12.70;7.63;;;10.80;99.90;;;8.30;70.62;101455.34;10516474;28;20143;-89
2023/01/04 09:11:20;;;;;;;10.37;6.80;;;10.30;99.90;;;7.49;71.77;101471.41;10555142;28;20056;-89
2023/01/04 09:16:24;;;;;;;15.83;8.87;;;9.60;99.90;;;7.04;73.85;101470.44;10507693;28;20067;-90
2023/01/04 09:21:27;;;;;;;13.90;7.90;;;9.20;99.90;;;7.36;75.43;101465.38;10495252;28;20057;-88
2023/01/04 09:26:30;;;;;;;19.37;9.87;;;9.50;99.90;;;8.04;75.15;101460.06;10517718;28;20084;-88
2023/01/04 09:31:33;;;;;;;18.63;10.27;;;10.20;99.90;;;8.57;74.47;101440.84;10491884;28;20618;-89
2023/01/04 09:36:36;;;;;;;13.33;7.77;;;10.70;99.90;;;8.63;72.79;101432.41;10485928;28;20063;-88
2023/01/04 09:41:51;;;;;;;13.20;8.13;;;10.80;99.90;;;8.21;72.26;101413.69;10479610;28;20060;-88
2023/01/04 09:47:05;;;;;;;17.60;8.73;;;10.50;99.90;;;7.77;72.83;101414.56;10496954;28;20068;-88
2023/01/04 09:52:08;;;;;;;14.00;7.03;;;10.10;99.90;;;7.38;73.84;101415.88;10508540;28;20071;-88
2023/01/04 09:57:35;;;;;;;13.30;6.53;;;9.70;99.90;;;7.03;74.86;101403.53;10502456;28;20838;-88
2023/01/04 10:02:51;;;;;;;14.30;6.80;;;9.40;99.90;;;6.76;75.90;101395.84;10511763;28;20068;-89
2023/01/04 10:07:55;;;;;;;18.10;8.90;;;9.10;99.90;;;6.63;76.96;101390.63;10527529;27;20064;-90
2023/01/04 10:13:23;;;;;;;13.73;7.40;;;8.90;99.90;;;6.54;77.92;101383.41;10501473;28;20536;-89
2023/01/04 10:19:30;;;;;;;16.73;8.17;;;8.80;99.90;;;6.52;78.75;101382.66;10575430;28;20060;-89
2023/01/04 10:25:14;;;;;;;13.23;7.33;;;8.70;99.90;;;6.55;79.75;101386.88;10545570;28;20076;-89
2023/01/04 10:31:05;;;;;;;9.63;5.87;;;8.70;99.90;;;6.56;80.19;101378.00;10557951;28;20060;-89
2023/01/04 10:36:30;;;;;;;10.05;5.40;;;8.70;99.90;;;6.60;80.38;101369.75;10577528;28;20064;-88
2023/01/04 10:41:41;;;;;;;11.47;5.27;;;8.70;99.90;;;6.63;80.34;101364.22;10567749;28;20060;-88
2023/01/04 10:46:56;;;;;;;10.50;4.80;;;8.80;99.90;;;6.69;79.99;101355.84;10522417;28;20087;-87
2023/01/04 10:52:08;;;;;;;9.43;4.50;;;8.80;99.90;;;6.79;79.81;101347.25;10513536;28;20185;-87
2023/01/04 10:57:29;;;;;;;9.20;4.15;;;8.90;99.90;;;7.21;80.61;101332.56;10532073;28;20060;-87
2023/01/04 11:02:48;;;;;;;10.10;4.18;;;9.40;99.90;;;7.85;79.76;101321.34;10542603;28;20530;-86
2023/01/04 11:08:00;;;;;;;6.63;4.10;;;10.10;99.90;;;8.06;78.40;101314.31;10503823;28;20065;-87
2023/01/04 11:13:04;;;;;;;11.40;5.03;;;10.40;99.90;;;8.27;77.99;101319.66;10546173;28;20056;-87
2023/01/04 11:18:10;;;;;;;9.30;4.53;;;10.50;99.90;;;8.36;76.81;101315.47;10542612;27;20056;-87
2023/01/04 11:23:16;;;;;;;5.90;3.10;;;10.50;99.90;;;8.42;74.85;101304.38;10548911;28;20084;-87
2023/01/04 11:29:02;;;;;;;6.30;2.80;;;10.50;99.90;;;8.39;73.58;101294.84;10521103;27;20056;-87
2023/01/04 11:34:05;;;;;;;3.43;1.90;;;10.50;99.90;;;8.36;72.92;101276.59;10525009;28;20059;-86
2023/01/04 11:39:24;;;;;;;4.70;1.60;;;10.40;99.90;;;8.35;71.63;101277.53;10537867;28;20068;-87
2023/01/04 11:44:27;;;;;;;4.97;2.23;;;10.40;99.90;;;8.35;70.40;101269.56;10531423;28;20064;-86
2023/01/04 11:49:35;;;;;;;6.30;2.90;;;10.40;99.90;;;8.38;70.54;101268.50;10545393;28;20064;-87
2023/01/04 11:54:38;;;;;;;4.20;2.23;;;10.50;99.90;;;8.48;69.17;101257.00;10519924;28;20065;-87
2023/01/04 11:59:41;;;;;;;5.37;2.53;;;10.60;99.90;;;8.74;69.64;101246.84;10529762;28;20061;-86
2023/01/04 12:04:44;;;;;;;3.70;2.30;;;10.80;99.90;;;8.89;68.54;101247.38;10512413;28;20056;-87
2023/01/04 12:09:47;;;;;;;5.47;2.97;;;10.90;99.90;;;8.89;66.83;101249.19;10511287;28;20103;-86
2023/01/04 12:14:51;;;;;;;4.33;2.67;;;10.90;99.90;;;8.77;67.70;101243.13;10527189;28;20060;-87
2023/01/04 12:19:56;;;;;;;5.10;3.10;;;10.80;99.90;;;8.70;67.25;101242.81;10510700;28;20119;-87
2023/01/04 12:25:02;;;;;;;3.53;2.10;;;10.80;99.80;;;8.62;66.19;101228.50;10527378;28;20056;-87
2023/01/04 12:30:07;;;;;;;4.13;1.80;;;10.70;99.20;;;8.55;65.49;101226.38;10519756;28;20139;-87
2023/01/04 12:36:02;;;;;;;5.40;2.23;;;10.70;98.90;;;8.50;65.01;101206.53;10532379;28;20059;-87
2023/01/04 12:41:05;;;;;;;5.23;2.40;;;10.60;97.80;;;8.52;64.99;101201.97;10568097;28;20517;-87
2023/01/04 12:52:10;;;;;;;2.10;0.90;;;10.50;97.70;;;8.45;64.26;101185.75;10568359;28;20064;-87
2023/01/04 12:57:37;;;;;;;2.83;1.43;;;10.50;97.20;;;8.47;64.59;101189.13;10549173;28;20056;-87
2023/01/04 13:03:13;;;;;;;4.83;1.93;;;10.50;97.10;;;8.53;65.75;101182.47;10526378;28;20052;-87
2023/01/04 13:08:17;;;;;;;6.17;2.10;;;10.60;97.70;;;8.56;66.43;101177.72;10509076;28;20057;-87
2023/01/04 13:13:54;;;;;;;15.77;8.63;;;10.60;97.90;;;8.57;66.57;101174.09;10525212;28;20061;-87
2023/01/04 13:19:17;;;;;;;2.70;1.30;;;10.70;98.00;;;8.50;66.56;101165.00;10510657;28;20147;-87
2023/01/04 13:24:23;;;;;;;4.63;2.50;;;10.70;98.00;;;8.53;66.67;101163.91;10534295;28;20063;-86
2023/01/04 13:29:35;;;;;;;9.77;3.60;;;10.70;98.20;;;8.64;66.50;101157.69;10508638;28;20064;-87
2023/01/04 13:35:03;;;;;;;19.57;9.40;;;10.80;98.20;;;8.77;66.26;101151.19;10528485;28;20056;-87
2023/01/04 13:40:36;;;;;;;5.53;2.70;;;10.90;98.20;;;8.88;66.31;101144.97;10563164;28;20060;-87
2023/01/04 13:46:07;;;;;;;3.20;1.60;;;11.00;98.20;;;8.87;65.22;101142.44;10516887;28;20059;-87
2023/01/04 13:51:31;;;;;;;3.17;1.77;;;11.00;97.50;;;8.71;65.58;101135.84;10523246;28;20138;-87
2023/01/04 13:56:39;;;;;;;3.57;1.80;;;10.90;97.40;;;8.56;66.32;101131.84;10537407;28;20061;-89
2023/01/04 14:01:49;;;;;;;8.63;3.30;;;10.70;97.60;;;8.41;67.02;101123.41;10524818;28;20091;-87
2023/01/04 14:06:58;;;;;;;3.30;1.20;;;10.60;97.70;;;8.26;67.50;101136.09;10511329;28;20447;-87
2023/01/04 14:12:16;;;;;;;1.80;1.07;;;10.40;98.00;;;8.11;67.81;101126.81;10522734;28;20426;-87
2023/01/04 14:17:49;;;;;;;3.10;1.47;;;10.30;98.10;;;7.91;68.02;101104.66;10536237;28;20588;-87
2023/01/04 14:22:57;;;;;;;3.20;1.93;;;10.10;98.20;;;7.71;68.98;101116.91;10533940;28;20068;-87
2023/01/04 14:28:29;;;;;;;4.27;2.27;;;9.90;98.40;;;7.43;70.26;101109.56;10514349;28;20056;-86
2023/01/04 14:33:35;;;;;;;;;;;9.70;98.70;;;7.18;71.23;101111.56;10556229;28;20159;-86
2023/01/04 14:39:05;;;;;;;3.23;1.73;;;9.50;99.10;;;6.93;72.25;101114.50;10578654;28;20005;-86
2023/01/04 14:44:19;;;;;;;6.73;3.33;;;9.20;99.10;;;6.79;72.68;101109.47;10530775;28;20095;-86
2023/01/04 14:49:25;;;;;;;9.67;4.07;;;9.00;99.40;;;6.68;73.52;101112.94;10548582;28;20415;-86
2023/01/04 14:54:30;;;;;;;9.23;4.07;;;8.90;99.90;;;6.52;73.94;101102.72;10497406;28;20096;-86
2023/01/04 14:59:33;;;;;;;7.53;3.50;;;8.80;99.90;;;6.35;73.94;101104.03;10537594;28;20064;-86
2023/01/04 15:04:36;;;;;;;8.00;3.97;;;8.60;99.90;;;6.15;74.46;101100.28;10511205;28;20052;-86
2023/01/04 15:09:39;;;;;;;9.40;4.37;;;8.40;99.90;;;5.96;74.76;101094.75;10523529;28;20061;-86
2023/01/04 15:14:43;;;;;;;7.63;4.40;;;8.30;99.90;;;5.72;75.36;101099.19;10542829;28;20059;-85
2023/01/04 15:19:46;;;;;;;12.17;5.87;;;8.10;99.90;;;5.46;76.25;101093.19;10516441;28;20147;-85
2023/01/04 15:24:49;;;;;;;11.07;5.50;;;7.90;99.90;;;5.17;77.24;101098.84;10523421;28;20155;-85
2023/01/04 15:29:52;;;;;;;13.53;5.63;;;7.60;99.90;;;4.93;78.16;101090.91;10515245;28;20056;-85
2023/01/04 15:34:55;;;;;;;21.17;8.20;;;7.30;99.90;;;4.69;79.24;101082.94;10538579;28;20062;-85
2023/01/04 15:39:58;;;;;;;23.23;9.50;;;7.10;99.90;;;4.44;79.88;101086.47;10521097;28;20066;-85
2023/01/04 15:45:06;;;;;;;22.33;8.80;;;6.80;99.90;;;4.17;81.04;101078.69;10516245;28;20067;-85
2023/01/04 15:50:09;;;;;;;29.00;11.93;;;6.60;99.90;;;3.97;81.79;101072.16;10557403;28;20536;-85
2023/01/04 15:55:13;;;;;;;24.10;11.40;;;6.40;99.90;;;3.78;82.91;101071.72;10532786;28;20084;-84
2023/01/04 16:00:17;;;;;;;33.87;11.37;;;6.20;99.90;;;3.60;83.66;101062.41;10528150;28;20061;-85
2023/01/04 16:05:20;;;;;;;21.03;10.90;;;6.00;99.90;;;3.46;84.35;101065.94;10514544;28;20061;-85
2023/01/04 16:10:24;;;;;;;26.00;12.70;;;5.90;99.90;;;3.33;85.25;101070.34;10517189;28;20060;-85
2023/01/04 16:15:27;;;;;;;40.20;13.80;;;5.70;99.90;;;3.16;85.79;101068.78;10513881;28;20450;-85
2023/01/04 16:20:30;;;;;;;38.27;17.33;;;5.60;99.90;;;3.05;86.51;101058.13;10534537;28;20064;-87
2023/01/04 16:25:33;;;;;;;34.90;16.50;;;5.40;99.90;;;2.91;87.01;101052.00;10545916;28;20122;-84
2023/01/04 16:30:37;;;;;;;38.57;16.77;;;5.40;99.90;;;2.78;87.43;101037.97;10514216;28;20445;-85
2023/01/04 16:35:40;;;;;;;35.23;17.80;;;5.20;99.90;;;2.69;88.53;101033.28;10530203;28;20549;-85
2023/01/04 16:40:43;;;;;;;27.27;13.30;;;5.10;99.90;;;2.59;89.11;101037.44;10523497;28;20457;-85
2023/01/04 16:45:47;;;;;;;26.53;14.67;;;5.00;99.90;;;2.50;89.94;101033.59;10544741;28;20217;-85
2023/01/04 16:50:50;;;;;;;30.07;14.47;;;4.90;99.90;;;2.51;91.04;101029.19;10531714;28;20148;-85
2023/01/04 16:55:53;;;;;;;37.03;15.97;;;4.90;99.90;;;2.48;91.84;101011.03;10527520;28;20056;-85
2023/01/04 17:01:08;;;;;;;34.30;16.50;;;4.90;99.90;;;2.50;92.41;101023.09;10543431;28;20056;-85
2023/01/04 17:06:19;;;;;;;35.03;16.63;;;4.90;99.90;;;2.45;92.66;101005.97;10534310;28;20063;-85
2023/01/04 17:11:31;;;;;;;38.77;18.80;;;4.80;99.90;;;2.39;93.00;100999.31;10532272;28;20068;-85
2023/01/04 17:16:56;;;;;;;40.70;18.13;;;4.80;99.90;;;2.35;93.82;101006.56;10535960;28;20071;-85
2023/01/04 17:21:59;;;;;;;37.50;17.97;;;4.70;99.90;;;2.32;94.34;100998.03;10509509;28;20067;-85
2023/01/04 17:27:02;;;;;;;42.20;18.60;;;4.70;99.90;;;2.23;94.93;100978.47;10492073;28;20135;-85
2023/01/04 17:32:05;;;;;;;33.43;17.53;;;4.60;99.90;;;2.22;95.25;100976.78;10509312;28;20061;-85
2023/01/04 17:37:08;;;;;;;37.53;17.00;;;4.60;99.90;;;2.19;95.29;100974.34;10525103;28;20056;-85
2023/01/04 17:42:11;;;;;;;39.53;20.07;;;4.60;99.90;;;2.08;95.86;100963.69;10553810;28;20135;-85
2023/01/04 17:47:14;;;;;;;55.80;26.57;;;4.50;99.90;;;2.09;96.37;100973.22;10534478;28;20058;-85
2023/01/04 17:52:17;;;;;;;66.47;27.83;;;4.50;99.90;;;2.08;96.78;100972.38;10525064;28;20151;-85
2023/01/04 17:57:33;;;;;;;80.17;33.43;;;4.40;99.90;;;2.07;97.30;100956.75;10513523;28;20052;-85
2023/01/04 18:02:36;;;;;;;68.27;30.87;;;4.40;99.90;;;2.02;97.86;100948.31;10538472;28;20056;-85
2023/01/04 18:07:39;;;;;;;70.90;29.13;;;4.40;99.90;;;1.98;98.06;100941.56;10539686;28;20067;-85
2023/01/04 18:12:43;;;;;;;67.97;29.77;;;4.40;99.90;;;1.98;98.47;100947.69;10530393;28;20062;-85
2023/01/04 18:17:46;;;;;;;58.23;25.90;;;4.40;99.90;;;1.99;99.07;100954.63;10548945;28;20067;-85
2023/01/04 18:22:48;;;;;;;54.37;25.50;;;4.30;99.90;;;2.03;99.40;100945.59;10564452;28;20181;-85
2023/01/04 18:27:52;;;;;;;54.30;25.10;;;4.40;99.90;;;2.12;99.92;100939.81;10520688;28;20529;-85
2023/01/04 18:32:55;;;;;;;66.53;26.77;;;4.50;99.90;;;2.27;100.00;100924.03;10527449;28;20057;-85
2023/01/04 18:37:58;;;;;;;64.03;31.70;;;4.60;99.90;;;2.47;100.00;100917.53;10535755;28;20067;-85
2023/01/04 18:43:01;;;;;;;77.37;30.67;;;4.70;99.90;;;2.62;100.00;100919.16;10538213;28;20620;-85
2023/01/04 18:48:04;;;;;;;66.73;27.03;;;4.90;99.90;;;2.77;100.00;100904.22;10550887;28;20497;-85
2023/01/04 18:53:07;;;;;;;59.23;26.47;;;5.00;99.90;;;2.93;100.00;100905.69;10555238;28;20147;-85
2023/01/04 18:58:10;;;;;;;57.97;26.77;;;5.20;99.90;;;3.03;100.00;100881.47;10538396;28;20061;-85
2023/01/04 19:03:13;;;;;;;60.70;25.30;;;5.30;99.90;;;3.16;100.00;100880.53;10520545;28;20061;-85
2023/01/04 19:08:20;;;;;;;52.40;23.50;;;5.40;99.90;;;3.20;100.00;100862.78;10514221;28;20150;-85
2023/01/04 19:13:23;;;;;;;66.27;26.50;;;5.50;99.90;;;3.19;100.00;100853.25;10531346;28;20058;-85
2023/01/04 19:18:27;;;;;;;45.27;22.50;;;5.50;99.90;;;3.22;100.00;100847.75;10554783;28;20135;-85
2023/01/04 19:23:30;;;;;;;62.60;27.83;;;5.50;99.90;;;3.26;100.00;100837.91;10554469;28;20060;-85
2023/01/04 19:28:33;;;;;;;73.47;31.43;;;5.50;99.90;;;3.31;100.00;100839.28;10553465;28;20135;-85
2023/01/04 19:33:37;;;;;;;65.30;28.03;;;5.50;99.90;;;3.28;100.00;100821.06;10545735;28;20061;-85
2023/01/04 19:38:40;;;;;;;57.87;28.00;;;5.60;99.90;;;3.23;100.00;100802.16;10496053;28;20052;-85
2023/01/04 19:43:43;;;;;;;61.07;26.47;;;5.60;99.90;;;3.29;100.00;100808.78;10548988;28;20518;-85
2023/01/04 19:48:46;;;;;;;60.13;27.63;;;5.50;99.90;;;3.23;100.00;100778.53;10554613;28;20056;-85
2023/01/04 19:53:50;;;;;;;60.17;29.50;;;5.50;99.90;;;3.21;100.00;100802.28;10531584;28;20067;-86
2023/01/04 19:58:53;;;;;;;58.77;26.73;;;5.50;99.90;;;3.20;100.00;100791.88;10512040;28;20088;-86
2023/01/04 20:03:56;;;;;;;50.60;23.87;;;5.40;99.90;;;3.20;100.00;100786.63;10514136;28;20052;-85
2023/01/04 20:08:59;;;;;;;51.57;24.73;;;5.50;99.90;;;3.22;100.00;100785.56;10544944;28;20056;-86
2023/01/04 20:14:02;;;;;;;55.17;26.43;;;5.50;99.90;;;3.30;100.00;100795.56;10494652;28;20060;-84
2023/01/04 20:19:05;;;;;;;44.93;22.37;;;5.50;99.90;;;3.39;100.00;100781.78;10537052;28;20067;-84
2023/01/04 20:24:08;;;;;;;39.63;20.53;;;5.60;99.90;;;3.48;100.00;100759.28;10520347;28;20075;-85
2023/01/04 20:29:11;;;;;;;42.60;21.40;;;5.70;99.90;;;3.58;100.00;100751.56;10543757;28;20052;-84
2023/01/04 20:34:15;;;;;;;40.77;20.17;;;5.80;99.90;;;3.67;100.00;100740.41;10510763;28;20071;-86
2023/01/04 20:39:17;;;;;;;35.83;17.77;;;5.90;99.90;;;3.78;100.00;100723.84;10543971;28;20143;-85
2023/01/04 20:44:20;;;;;;;47.93;21.97;;;6.00;99.90;;;3.88;100.00;100715.16;10494141;28;20102;-85
2023/01/04 20:49:23;;;;;;;52.83;26.37;;;6.10;99.90;;;3.94;100.00;100719.97;10533561;27;20143;-85
2023/01/04 20:54:26;;;;;;;46.27;23.17;;;6.20;99.90;;;3.94;100.00;100717.34;10516942;28;20065;-86
2023/01/04 20:59:30;;;;;;;49.30;24.10;;;6.20;99.90;;;3.92;100.00;100706.13;10537862;28;20106;-86
2023/01/04 21:04:33;;;;;;;46.77;21.90;;;6.20;99.90;;;3.88;100.00;100688.88;10528403;28;20494;-86
2023/01/04 21:09:36;;;;;;;44.23;21.70;;;6.20;99.90;;;3.89;100.00;100698.44;10525058;28;20060;-86
2023/01/04 21:14:39;;;;;;;42.57;21.47;;;6.20;99.90;;;3.79;100.00;100662.44;10511833;28;20318;-86
2023/01/04 21:19:43;;;;;;;41.27;18.97;;;6.10;99.90;;;3.78;100.00;100651.09;10532296;28;20063;-86
2023/01/04 21:24:46;;;;;;;33.77;16.10;;;6.00;99.90;;;3.79;100.00;100642.25;10528047;28;20056;-86
2023/01/04 21:29:50;;;;;;;35.87;18.63;;;6.00;99.90;;;3.84;100.00;100641.88;10546877;28;20067;-86
2023/01/04 21:34:53;;;;;;;40.17;18.17;;;6.10;99.90;;;3.92;100.00;100627.22;10540720;28;20061;-87
2023/01/04 21:39:56;;;;;;;36.53;17.10;;;6.10;99.90;;;3.92;100.00;100606.19;10546065;28;20064;-86
2023/01/04 21:44:59;;;;;;;30.43;14.77;;;6.20;99.90;;;3.97;100.00;100605.88;10517919;28;20064;-86
2023/01/04 21:50:03;;;;;;;33.70;16.30;;;6.20;99.90;;;3.99;100.00;100599.53;10506587;28;20408;-86
2023/01/04 21:55:07;;;;;;;30.63;15.27;;;6.30;99.90;;;4.01;100.00;100600.22;10536305;28;20067;-86
2023/01/04 22:00:11;;;;;;;36.73;18.20;;;6.30;99.90;;;4.06;100.00;100593.78;10539733;28;20056;-86
2023/01/04 22:05:14;;;;;;;40.00;19.07;;;6.30;99.90;;;4.01;100.00;100589.72;10545686;28;20056;-87